Marion, Kansas
Current Conditions -  °F | °C
As of 3:55 PM on Tuesday 25 Nov 2014 (Local Time) from KEWK Reporting Station
Clear Clear  
Wind Chill: 40°   Ceiling: Unl
Heat Index: 46°   Visibility: 10mi
Dew Point: 21°   Wind: 14mph
Humidity: 37%   Direction: 200°SSW
Pressure: 30.06"   Gusts: NA
Location:  38.35°N, 97.02°W
Report Text: KEWK 252155Z AUTO 20012KT 10SM CLR 08/M06 A3006 RMK AO1
Loading
Personal Weather Stations






























Interactive Weather Map New forecast layout! Learn more

10-Day Weather Forecast

Advertisements
Track Severe Weather on mobile